createdAt,value
2022-09-24T00:02:14.052Z,11.66
2022-09-24T00:05:01.969Z,11.53
2022-09-24T00:07:51.272Z,11.49
2022-09-24T00:10:39.450Z,11.48
2022-09-24T00:13:27.934Z,11.41
2022-09-24T00:16:18.053Z,11.32
2022-09-24T00:19:06.396Z,11.31
2022-09-24T00:21:54.327Z,11.27
2022-09-24T00:25:01.465Z,11.29
2022-09-24T00:27:49.372Z,11.29
2022-09-24T00:30:39.495Z,11.30
2022-09-24T00:33:28.142Z,11.30
2022-09-24T00:36:16.077Z,11.36
2022-09-24T00:39:04.612Z,11.38
2022-09-24T00:41:54.325Z,11.37
2022-09-24T00:44:54.378Z,11.40
2022-09-24T00:47:44.823Z,11.41
2022-09-24T00:50:35.698Z,11.37
2022-09-24T00:53:45.918Z,11.28
2022-09-24T00:56:37.469Z,11.38
2022-09-24T00:59:28.273Z,11.35
2022-09-24T01:02:16.204Z,11.40
2022-09-24T01:05:05.341Z,11.41
2022-09-24T01:07:53.430Z,11.36
2022-09-24T01:10:56.881Z,11.30
2022-09-24T01:13:57.753Z,11.26
2022-09-24T01:16:55.042Z,11.17
2022-09-24T01:20:00.599Z,10.96
2022-09-24T01:23:04.504Z,10.83
2022-09-24T01:26:08.473Z,10.74
2022-09-24T01:29:06.864Z,10.65
2022-09-24T01:32:03.816Z,10.57
2022-09-24T01:34:59.060Z,10.50
2022-09-24T01:37:53.520Z,10.36
2022-09-24T01:40:43.138Z,10.27
2022-09-24T01:43:32.992Z,10.17
2022-09-24T01:46:22.689Z,10.05
2022-09-24T01:49:12.070Z,9.95
2022-09-24T01:52:05.043Z,9.91
2022-09-24T01:54:55.672Z,9.77
2022-09-24T01:57:46.375Z,9.88
2022-09-24T02:00:34.727Z,9.84
2022-09-24T02:03:29.765Z,9.88
2022-09-24T02:06:24.157Z,9.81
2022-09-24T02:09:33.981Z,9.79
2022-09-24T02:12:29.506Z,9.64
2022-09-24T02:15:22.017Z,9.59
2022-09-24T02:18:12.640Z,9.56
2022-09-24T02:21:02.973Z,9.52
2022-09-24T02:23:58.531Z,9.49
2022-09-24T02:26:47.322Z,9.48
2022-09-24T02:29:35.724Z,9.36
2022-09-24T02:32:26.895Z,9.30
2022-09-24T02:35:13.809Z,9.24
2022-09-24T02:38:06.345Z,9.15
2022-09-24T02:40:55.728Z,9.12
2022-09-24T02:43:44.113Z,9.06
2022-09-24T02:46:32.100Z,9.02
2022-09-24T02:49:20.033Z,9.02
2022-09-24T02:52:08.250Z,9.04
2022-09-24T02:54:56.521Z,9.04
2022-09-24T02:57:46.363Z,9.03
2022-09-24T03:00:34.293Z,8.97
2022-09-24T03:03:22.674Z,8.92
2022-09-24T03:06:13.442Z,8.98
2022-09-24T03:09:03.294Z,9.05
2022-09-24T03:11:51.242Z,9.06
2022-09-24T03:14:40.509Z,8.97
2022-09-24T03:17:28.974Z,9.00
2022-09-24T03:20:17.242Z,9.02
2022-09-24T03:23:05.414Z,8.99
2022-09-24T03:25:53.761Z,8.91
2022-09-24T03:28:41.776Z,8.91
2022-09-24T03:31:31.064Z,8.84
2022-09-24T03:34:19.008Z,8.85
2022-09-24T03:37:07.032Z,8.72
2022-09-24T03:39:54.992Z,8.77
2022-09-24T03:42:42.948Z,8.76
2022-09-24T03:45:30.839Z,8.73
2022-09-24T03:48:21.336Z,8.73
2022-09-24T03:51:11.719Z,8.73
2022-09-24T03:53:59.626Z,8.78
2022-09-24T03:56:47.509Z,8.78
2022-09-24T03:59:35.364Z,8.94
2022-09-24T04:02:23.241Z,9.00
2022-09-24T04:05:12.478Z,9.01
2022-09-24T04:08:00.749Z,8.60
2022-09-24T04:10:49.736Z,9.02
2022-09-24T04:13:37.626Z,8.99
2022-09-24T04:16:25.616Z,8.98
2022-09-24T04:19:15.978Z,8.87
2022-09-24T04:22:05.209Z,8.89
2022-09-24T04:24:53.810Z,8.89
2022-09-24T04:27:41.677Z,8.80
2022-09-24T04:30:31.667Z,8.75
2022-09-24T04:33:19.520Z,8.79
2022-09-24T04:36:07.513Z,8.81
2022-09-24T04:38:57.435Z,8.79
2022-09-24T04:41:47.873Z,8.78
2022-09-24T04:44:35.760Z,8.82
2022-09-24T04:47:25.833Z,8.66
2022-09-24T04:50:13.900Z,8.78
2022-09-24T04:53:02.538Z,8.79
2022-09-24T04:55:51.809Z,8.75
2022-09-24T04:58:40.358Z,8.74
2022-09-24T05:01:28.337Z,8.74
2022-09-24T05:04:16.408Z,8.79
2022-09-24T05:07:04.674Z,8.85
2022-09-24T05:09:52.564Z,8.93
2022-09-24T05:12:42.297Z,8.98
2022-09-24T05:15:30.458Z,9.01
2022-09-24T05:18:18.370Z,9.02
2022-09-24T05:21:06.674Z,9.09
2022-09-24T05:23:54.932Z,9.15
2022-09-24T05:27:00.668Z,9.19
2022-09-24T05:29:50.237Z,9.30
2022-09-24T05:32:38.145Z,9.38
2022-09-24T05:35:26.056Z,9.45
2022-09-24T05:38:13.962Z,9.49
2022-09-24T05:41:01.930Z,9.53
2022-09-24T05:43:50.000Z,9.62
2022-09-24T05:46:39.287Z,9.69
2022-09-24T05:49:27.340Z,9.80
2022-09-24T05:52:15.216Z,9.86
2022-09-24T05:55:03.116Z,9.89
2022-09-24T05:57:50.994Z,10.06
2022-09-24T06:00:38.908Z,10.12
2022-09-24T06:03:29.571Z,10.23
2022-09-24T06:05:59.561Z,10.31
2022-09-24T06:08:27.178Z,10.37
2022-09-24T06:10:59.314Z,10.30
2022-09-24T06:13:26.976Z,10.62
2022-09-24T06:16:00.636Z,10.67
2022-09-24T06:18:29.750Z,10.83
2022-09-24T06:21:02.005Z,10.98
2022-09-24T06:23:30.862Z,11.12
2022-09-24T06:25:58.577Z,10.85
2022-09-24T06:28:26.294Z,11.39
2022-09-24T06:30:54.235Z,11.57
2022-09-24T06:33:23.339Z,11.62
2022-09-24T06:35:52.308Z,11.65
2022-09-24T06:38:20.644Z,11.55
2022-09-24T06:40:49.241Z,11.72
2022-09-24T06:43:18.094Z,11.82
2022-09-24T06:45:46.237Z,11.85
2022-09-24T06:48:15.027Z,11.89
2022-09-24T06:50:45.543Z,12.03
2022-09-24T06:53:14.688Z,12.14
2022-09-24T06:55:42.561Z,12.28
2022-09-24T06:58:11.878Z,12.46
2022-09-24T07:00:40.244Z,12.80
2022-09-24T07:03:08.938Z,13.02
2022-09-24T07:05:41.075Z,13.06
2022-09-24T07:08:11.340Z,12.62
2022-09-24T07:10:43.468Z,13.12
2022-09-24T07:13:11.872Z,13.14
2022-09-24T07:15:39.616Z,13.16
2022-09-24T07:18:07.440Z,13.20
2022-09-24T07:20:36.824Z,13.13
2022-09-24T07:23:05.160Z,13.14
2022-09-24T07:25:33.293Z,12.79
2022-09-24T07:28:07.727Z,12.89
2022-09-24T07:30:36.218Z,12.97
2022-09-24T07:33:04.767Z,13.14
2022-09-24T07:35:32.662Z,13.27
2022-09-24T07:38:02.100Z,13.38
2022-09-24T07:40:31.086Z,13.65
2022-09-24T07:43:00.004Z,13.84
2022-09-24T07:45:31.451Z,13.91
2022-09-24T07:48:00.568Z,13.70
2022-09-24T07:50:29.896Z,13.82
2022-09-24T07:52:57.887Z,13.87
2022-09-24T07:55:25.995Z,13.89
2022-09-24T07:57:55.145Z,13.98
2022-09-24T08:00:24.716Z,14.11
2022-09-24T08:02:54.056Z,14.28
2022-09-24T08:05:21.696Z,14.50
2022-09-24T08:07:53.253Z,14.65
2022-09-24T08:10:21.262Z,14.68
2022-09-24T08:12:48.913Z,14.57
2022-09-24T08:15:16.739Z,14.35
2022-09-24T08:17:44.546Z,14.32
2022-09-24T08:20:14.079Z,14.36
2022-09-24T08:22:41.716Z,14.41
2022-09-24T08:25:09.493Z,14.44
2022-09-24T08:27:37.445Z,14.46
2022-09-24T08:30:05.734Z,14.58
2022-09-24T08:32:33.564Z,14.75
2022-09-24T08:35:01.158Z,14.75
2022-09-24T08:37:31.457Z,14.75
2022-09-24T08:39:59.064Z,15.27
2022-09-24T08:42:37.989Z,15.73
2022-09-24T08:45:24.437Z,16.04
2022-09-24T08:47:56.560Z,16.18
2022-09-24T08:50:26.809Z,16.49
2022-09-24T08:53:04.207Z,16.71
2022-09-24T08:55:39.030Z,17.01
2022-09-24T08:58:40.502Z,17.23
2022-09-24T09:01:22.319Z,17.46
2022-09-24T09:03:54.936Z,17.50
2022-09-24T09:06:44.736Z,17.72
2022-09-24T09:09:19.422Z,17.72
2022-09-24T09:11:51.222Z,17.82
2022-09-24T09:14:22.703Z,17.67
2022-09-24T09:16:53.850Z,17.50
2022-09-24T09:19:27.560Z,17.45
2022-09-24T09:21:58.165Z,17.68
2022-09-24T09:24:36.076Z,17.67
2022-09-24T09:27:14.607Z,17.55
2022-09-24T09:29:43.029Z,17.70
2022-09-24T09:32:23.980Z,17.74
2022-09-24T09:35:01.844Z,17.87
2022-09-24T09:37:38.080Z,18.04
2022-09-24T09:40:27.648Z,17.79
2022-09-24T09:43:03.890Z,17.87
2022-09-24T09:45:37.921Z,17.76
2022-09-24T09:48:06.700Z,17.58
2022-09-24T09:50:39.184Z,17.36
2022-09-24T09:53:07.040Z,17.44
2022-09-24T09:55:38.545Z,17.27
2022-09-24T09:58:18.231Z,17.19
2022-09-24T10:00:48.253Z,17.64
2022-09-24T10:03:25.006Z,17.54
2022-09-24T10:05:55.814Z,17.36
2022-09-24T10:08:24.904Z,17.14
2022-09-24T10:10:58.365Z,17.07
2022-09-24T10:13:27.071Z,17.11
2022-09-24T10:15:57.548Z,17.24
2022-09-24T10:18:32.743Z,17.51
2022-09-24T10:21:03.219Z,18.00
2022-09-24T10:23:36.683Z,18.36
2022-09-24T10:26:09.324Z,18.70
2022-09-24T10:28:59.637Z,18.73
2022-09-24T10:31:31.350Z,18.52
2022-09-24T10:34:01.828Z,18.52
2022-09-24T10:36:32.488Z,18.40
2022-09-24T10:39:04.501Z,18.28
2022-09-24T10:41:33.509Z,18.42
2022-09-24T10:44:05.337Z,18.35
2022-09-24T10:46:52.782Z,18.28
2022-09-24T10:49:31.944Z,18.35
2022-09-24T10:52:10.655Z,18.32
2022-09-24T10:54:50.107Z,18.33
2022-09-24T10:57:31.878Z,18.67
2022-09-24T11:00:09.340Z,18.82
2022-09-24T11:02:59.677Z,18.60
2022-09-24T11:05:32.655Z,18.39
2022-09-24T11:08:14.600Z,18.24
2022-09-24T11:10:56.944Z,18.47
2022-09-24T11:13:34.267Z,18.59
2022-09-24T11:16:30.406Z,18.75
2022-09-24T11:19:02.281Z,18.77
2022-09-24T11:21:47.089Z,18.80
2022-09-24T11:24:29.744Z,19.01
2022-09-24T11:27:07.418Z,18.93
2022-09-24T11:29:48.748Z,18.95
2022-09-24T11:32:26.321Z,18.98
2022-09-24T11:35:15.472Z,19.11
2022-09-24T11:37:54.279Z,19.30
2022-09-24T11:41:03.092Z,19.40
2022-09-24T11:43:50.482Z,19.52
2022-09-24T11:46:30.134Z,19.61
2022-09-24T11:49:14.224Z,19.54
2022-09-24T11:51:53.383Z,19.22
2022-09-24T11:54:27.087Z,19.13
2022-09-24T11:57:02.040Z,18.92
2022-09-24T11:59:37.866Z,19.18
2022-09-24T12:02:13.427Z,18.94
2022-09-24T12:04:52.565Z,18.89
2022-09-24T12:07:25.817Z,18.89
2022-09-24T12:09:59.921Z,18.68
2022-09-24T12:12:30.219Z,18.66
2022-09-24T12:15:02.680Z,18.79
2022-09-24T12:17:38.494Z,18.94
2022-09-24T12:20:19.414Z,19.09
2022-09-24T12:22:49.710Z,19.16
2022-09-24T12:25:17.821Z,19.43
2022-09-24T12:27:46.660Z,19.35
2022-09-24T12:30:47.100Z,19.34
2022-09-24T12:33:23.924Z,19.12
2022-09-24T12:36:06.033Z,18.74
2022-09-24T12:38:37.821Z,18.99
2022-09-24T12:41:28.260Z,19.23
2022-09-24T12:44:02.766Z,19.21
2022-09-24T12:46:33.446Z,20.04
2022-09-24T12:49:02.908Z,20.59
2022-09-24T12:51:38.557Z,20.77
2022-09-24T12:54:08.817Z,20.52
2022-09-24T12:56:36.565Z,20.46
2022-09-24T12:59:05.502Z,20.28
2022-09-24T13:01:34.131Z,20.02
2022-09-24T13:04:06.281Z,19.57
2022-09-24T13:06:36.603Z,19.44
2022-09-24T13:09:25.965Z,19.36
2022-09-24T13:12:03.317Z,19.59
2022-09-24T13:14:33.377Z,19.86
2022-09-24T13:17:07.316Z,19.77
2022-09-24T13:19:41.818Z,19.59
2022-09-24T13:22:22.701Z,19.50
2022-09-24T13:24:52.548Z,19.61
2022-09-24T13:27:37.365Z,19.42
2022-09-24T13:30:15.387Z,19.29
2022-09-24T13:32:47.752Z,19.15
2022-09-24T13:35:22.036Z,18.82
2022-09-24T13:37:54.648Z,19.04
2022-09-24T13:40:26.793Z,19.09
2022-09-24T13:43:01.332Z,19.13
2022-09-24T13:45:29.216Z,19.22
2022-09-24T13:47:59.803Z,19.16
2022-09-24T13:50:32.484Z,19.47
2022-09-24T13:53:04.569Z,19.18
2022-09-24T13:55:34.370Z,19.35
2022-09-24T13:58:02.009Z,19.39
2022-09-24T14:00:32.133Z,19.41
2022-09-24T14:03:03.800Z,19.39
2022-09-24T14:05:36.908Z,19.37
2022-09-24T14:08:07.428Z,19.19
2022-09-24T14:10:36.392Z,19.37
2022-09-24T14:13:17.567Z,19.52
2022-09-24T14:15:53.252Z,19.55
2022-09-24T14:18:21.215Z,19.60
2022-09-24T14:20:56.924Z,19.50
2022-09-24T14:23:29.422Z,19.59
2022-09-24T14:25:59.036Z,19.44
2022-09-24T14:28:28.808Z,19.21
2022-09-24T14:30:57.179Z,18.94
2022-09-24T14:33:32.948Z,18.71
2022-09-24T14:36:03.489Z,18.82
2022-09-24T14:38:35.903Z,18.79
2022-09-24T14:41:06.731Z,18.95
2022-09-24T14:43:43.597Z,19.18
2022-09-24T14:46:20.043Z,19.15
2022-09-24T14:48:47.828Z,19.32
2022-09-24T14:51:25.047Z,19.26
2022-09-24T14:53:59.220Z,19.27
2022-09-24T14:56:29.321Z,19.38
2022-09-24T14:58:57.300Z,19.36
2022-09-24T15:01:30.819Z,19.17
2022-09-24T15:04:01.684Z,19.15
2022-09-24T15:06:33.204Z,19.03
2022-09-24T15:09:03.366Z,18.82
2022-09-24T15:11:34.320Z,18.63
2022-09-24T15:14:12.648Z,18.76
2022-09-24T15:16:40.519Z,18.70
2022-09-24T15:19:19.371Z,18.60
2022-09-24T15:21:49.524Z,18.66
2022-09-24T15:24:17.606Z,18.72
2022-09-24T15:26:47.220Z,18.80
2022-09-24T15:29:24.201Z,18.66
2022-09-24T15:31:51.909Z,18.60
2022-09-24T15:34:20.542Z,18.62
2022-09-24T15:36:51.513Z,18.69
2022-09-24T15:39:20.355Z,18.58
2022-09-24T15:41:47.965Z,18.48
2022-09-24T15:44:21.751Z,18.40
2022-09-24T15:46:51.010Z,18.27
2022-09-24T15:49:21.779Z,18.27
2022-09-24T15:51:51.936Z,18.17
2022-09-24T15:54:19.968Z,18.26
2022-09-24T15:56:52.181Z,18.18
2022-09-24T15:59:20.587Z,18.05
2022-09-24T16:01:49.827Z,17.88
2022-09-24T16:04:17.911Z,17.79
2022-09-24T16:06:45.568Z,17.64
2022-09-24T16:09:14.594Z,17.55
2022-09-24T16:11:42.309Z,17.40
2022-09-24T16:14:10.526Z,17.22
2022-09-24T16:16:39.346Z,17.07
2022-09-24T16:19:08.409Z,16.86
2022-09-24T16:21:36.142Z,16.74
2022-09-24T16:24:03.764Z,16.57
2022-09-24T16:26:34.336Z,16.42
2022-09-24T16:29:03.352Z,16.34
2022-09-24T16:31:31.353Z,16.29
2022-09-24T16:33:59.121Z,16.22
2022-09-24T16:36:26.783Z,16.13
2022-09-24T16:38:54.476Z,16.04
2022-09-24T16:41:22.213Z,16.00
2022-09-24T16:43:56.705Z,15.88
2022-09-24T16:46:24.670Z,15.77
2022-09-24T16:48:52.512Z,15.77
2022-09-24T16:51:20.444Z,15.76
2022-09-24T16:53:49.101Z,15.63
2022-09-24T16:56:18.376Z,15.37
2022-09-24T16:58:47.488Z,15.46
2022-09-24T17:01:18.151Z,15.27
2022-09-24T17:03:50.852Z,15.07
2022-09-24T17:06:19.835Z,14.59
2022-09-24T17:09:05.530Z,14.75
2022-09-24T17:11:33.695Z,14.66
2022-09-24T17:14:01.850Z,14.57
2022-09-24T17:16:49.592Z,14.49
2022-09-24T17:19:37.428Z,14.43
2022-09-24T17:22:25.544Z,14.36
2022-09-24T17:25:13.438Z,14.36
2022-09-24T17:28:02.059Z,14.39
2022-09-24T17:30:52.294Z,14.23
2022-09-24T17:33:43.762Z,14.37
2022-09-24T17:36:34.418Z,14.33
2022-09-24T17:39:22.302Z,14.34
2022-09-24T17:42:10.432Z,14.31
2022-09-24T17:44:58.397Z,14.31
2022-09-24T17:48:00.279Z,14.32
2022-09-24T17:50:55.351Z,14.32
2022-09-24T17:53:44.072Z,14.32
2022-09-24T17:56:34.204Z,14.27
2022-09-24T17:59:26.401Z,14.33
2022-09-24T18:02:14.950Z,14.33
2022-09-24T18:05:02.861Z,14.26
2022-09-24T18:07:52.110Z,14.20
2022-09-24T18:10:40.343Z,14.17
2022-09-24T18:13:28.266Z,14.09
2022-09-24T18:16:17.723Z,13.99
2022-09-24T18:19:05.779Z,13.93
2022-09-24T18:21:54.531Z,13.86
2022-09-24T18:24:44.463Z,13.78
2022-09-24T18:27:32.727Z,13.74
2022-09-24T18:30:20.605Z,13.78
2022-09-24T18:33:08.627Z,13.83
2022-09-24T18:35:56.517Z,13.80
2022-09-24T18:38:45.091Z,13.86
2022-09-24T18:41:34.716Z,13.84
2022-09-24T18:44:22.709Z,13.83
2022-09-24T18:47:14.517Z,13.82
2022-09-24T18:50:02.445Z,13.79
2022-09-24T18:52:50.407Z,13.80
2022-09-24T18:55:40.529Z,13.78
2022-09-24T18:58:29.767Z,13.77
2022-09-24T19:01:17.767Z,13.74
2022-09-24T19:04:07.014Z,13.70
2022-09-24T19:06:54.960Z,13.61
2022-09-24T19:09:42.842Z,13.33
2022-09-24T19:12:31.009Z,13.30
2022-09-24T19:15:20.320Z,13.36
2022-09-24T19:18:09.017Z,13.16
2022-09-24T19:20:57.976Z,13.05
2022-09-24T19:23:47.846Z,12.98
2022-09-24T19:26:37.144Z,12.98
2022-09-24T19:29:25.590Z,12.97
2022-09-24T19:32:14.915Z,12.87
2022-09-24T19:35:02.902Z,12.88
2022-09-24T19:37:50.777Z,12.94
2022-09-24T19:40:38.772Z,12.99
2022-09-24T19:43:27.365Z,12.99
2022-09-24T19:46:16.806Z,12.90
2022-09-24T19:49:06.812Z,12.91
2022-09-24T19:51:54.765Z,12.88
2022-09-24T19:54:44.341Z,12.88
2022-09-24T19:57:34.810Z,12.91
2022-09-24T20:00:24.945Z,12.94
2022-09-24T20:03:13.397Z,12.98
2022-09-24T20:06:08.124Z,12.99
2022-09-24T20:08:57.002Z,13.09
2022-09-24T20:11:45.136Z,13.13
2022-09-24T20:14:33.868Z,13.16
2022-09-24T20:17:21.985Z,12.99
2022-09-24T20:20:10.119Z,13.03
2022-09-24T20:22:59.418Z,12.98
2022-09-24T20:26:08.054Z,13.01
2022-09-24T20:28:56.004Z,13.04
2022-09-24T20:31:51.649Z,12.95
2022-09-24T20:34:40.142Z,12.93
2022-09-24T20:37:28.288Z,12.96
2022-09-24T20:40:17.807Z,12.95
2022-09-24T20:43:05.752Z,13.00
2022-09-24T20:45:53.753Z,12.97
2022-09-24T20:48:41.691Z,12.96
2022-09-24T20:51:33.206Z,12.94
2022-09-24T20:54:21.468Z,12.95
2022-09-24T20:57:10.683Z,12.84
2022-09-24T20:59:58.555Z,12.79
2022-09-24T21:02:46.435Z,12.86
2022-09-24T21:05:34.354Z,12.84
2022-09-24T21:08:22.255Z,12.80
2022-09-24T21:11:11.923Z,12.79
2022-09-24T21:14:02.749Z,12.71
2022-09-24T21:16:50.837Z,12.72
2022-09-24T21:19:38.704Z,12.69
2022-09-24T21:22:26.630Z,12.71
2022-09-24T21:25:30.343Z,12.66
2022-09-24T21:28:22.639Z,12.65
2022-09-24T21:31:12.185Z,12.62
2022-09-24T21:34:01.041Z,12.60
2022-09-24T21:36:49.258Z,12.61
2022-09-24T21:39:37.118Z,12.64
2022-09-24T21:42:27.644Z,12.63
2022-09-24T21:45:15.546Z,12.57
2022-09-24T21:48:04.933Z,12.63
2022-09-24T21:50:52.913Z,12.63
2022-09-24T21:53:41.525Z,12.61
2022-09-24T21:56:30.482Z,12.65
2022-09-24T21:59:35.941Z,12.67
2022-09-24T22:02:23.906Z,12.68
2022-09-24T22:05:16.459Z,12.63
2022-09-24T22:08:11.747Z,12.61
2022-09-24T22:11:04.780Z,12.62
2022-09-24T22:13:52.835Z,12.59
2022-09-24T22:16:41.402Z,12.59
2022-09-24T22:19:29.325Z,12.59
2022-09-24T22:22:18.571Z,12.58
2022-09-24T22:25:07.514Z,12.61
2022-09-24T22:27:55.383Z,12.63
2022-09-24T22:30:44.163Z,12.61
2022-09-24T22:33:50.130Z,12.65
2022-09-24T22:36:38.467Z,12.57
2022-09-24T22:39:27.676Z,12.60
2022-09-24T22:42:15.599Z,12.46
2022-09-24T22:45:03.554Z,12.45
2022-09-24T22:47:52.618Z,12.57
2022-09-24T22:50:40.480Z,12.59
2022-09-24T22:53:28.565Z,12.41
2022-09-24T22:56:19.977Z,12.26
2022-09-24T22:59:07.900Z,12.25
2022-09-24T23:01:55.798Z,12.25
2022-09-24T23:04:43.923Z,12.28
2022-09-24T23:07:32.494Z,12.30
2022-09-24T23:10:20.441Z,12.32
2022-09-24T23:13:09.680Z,12.35
2022-09-24T23:15:57.580Z,12.35
2022-09-24T23:18:47.182Z,12.31
2022-09-24T23:21:36.728Z,12.31
2022-09-24T23:24:24.658Z,12.33
2022-09-24T23:27:12.639Z,12.33
2022-09-24T23:30:01.837Z,12.35
2022-09-24T23:32:49.782Z,12.37
2022-09-24T23:35:37.665Z,12.37
2022-09-24T23:38:25.646Z,12.52
2022-09-24T23:41:14.886Z,12.58
2022-09-24T23:44:03.409Z,12.62
2022-09-24T23:46:52.711Z,12.62
2022-09-24T23:49:40.604Z,12.58
2022-09-24T23:52:28.467Z,12.56
2022-09-24T23:55:16.691Z,12.57
2022-09-24T23:58:04.747Z,12.51
